Time;durP1;ratioP1;P1;durP2;ratioP2;P2;SDS_P1;SDS_P2;PMS_P1;PMS_P2;Temp;Humidity;BMP_temperature;BMP_pressure;BME280_temperature;BME280_humidity;BME280_pressure;Samples;Min_cycle;Max_cycle;Signal;HPM_P1;HPM_P2
2023/06/05 00:01:18;;;;;;;17.38;15.77;;;15.00;99.90;;;;;;5185234;28;20033;-68
2023/06/05 00:03:49;;;;;;;19.08;17.27;;;15.00;99.90;;;;;;5185264;28;20021;-69
2023/06/05 00:06:20;;;;;;;18.35;16.48;;;14.90;99.90;;;;;;5185210;28;20030;-69
2023/06/05 00:08:51;;;;;;;19.90;18.20;;;14.80;99.90;;;;;;5185139;28;20029;-69
2023/06/05 00:11:22;;;;;;;21.85;17.38;;;14.80;99.90;;;;;;5183742;28;20045;-69
2023/06/05 00:13:53;;;;;;;19.98;17.95;;;14.90;99.90;;;;;;5184877;28;20053;-69
2023/06/05 00:16:24;;;;;;;20.15;18.20;;;14.80;99.90;;;;;;5185095;28;20042;-69
2023/06/05 00:18:55;;;;;;;20.88;19.08;;;14.80;99.90;;;;;;5185132;28;20049;-69
2023/06/05 00:21:26;;;;;;;18.85;17.17;;;15.00;99.90;;;;;;5185036;28;20489;-69
2023/06/05 00:23:57;;;;;;;20.27;18.15;;;15.00;99.90;;;;;;5185146;28;20484;-69
2023/06/05 00:26:28;;;;;;;21.02;19.13;;;14.70;99.90;;;;;;5184929;28;20109;-69
2023/06/05 00:28:58;;;;;;;22.10;20.27;;;14.70;99.90;;;;;;5184922;28;20026;-69
2023/06/05 00:31:30;;;;;;;19.45;17.85;;;14.70;99.90;;;;;;5184869;28;20041;-69
2023/06/05 00:34:01;;;;;;;21.48;19.55;;;14.70;99.90;;;;;;5185739;28;20022;-69
2023/06/05 00:36:32;;;;;;;21.92;20.13;;;14.80;99.90;;;;;;5188832;28;20026;-69
2023/06/05 00:39:03;;;;;;;22.67;20.63;;;14.80;99.90;;;;;;5188749;28;20022;-69
2023/06/05 00:41:35;;;;;;;21.52;19.77;;;14.70;99.90;;;;;;5188878;28;20022;-68
2023/06/05 00:44:06;;;;;;;21.45;19.65;;;14.80;99.90;;;;;;5189053;28;20025;-69
2023/06/05 00:46:39;;;;;;;22.45;20.58;;;15.00;99.90;;;;;;5188757;28;20374;-69
2023/06/05 00:49:10;;;;;;;22.20;20.10;;;14.90;99.90;;;;;;5189043;28;20549;-69
2023/06/05 00:51:44;;;;;;;20.63;18.38;;;14.90;99.90;;;;;;5188729;28;20095;-68
2023/06/05 00:54:15;;;;;;;22.77;20.42;;;14.90;99.90;;;;;;5188546;28;20030;-70
2023/06/05 00:56:46;;;;;;;23.80;21.50;;;14.90;99.90;;;;;;5188505;28;20041;-69
2023/06/05 00:59:17;;;;;;;24.10;21.80;;;15.00;99.90;;;;;;5188522;28;20022;-69
2023/06/05 01:01:48;;;;;;;23.55;21.33;;;14.80;99.90;;;;;;5188369;28;20466;-68
2023/06/05 01:04:19;;;;;;;22.88;20.83;;;14.90;99.90;;;;;;5188368;28;20029;-69
2023/06/05 01:06:51;;;;;;;23.20;20.98;;;14.70;99.90;;;;;;5188368;28;20033;-69
2023/06/05 01:09:22;;;;;;;21.35;19.35;;;14.60;99.90;;;;;;5188361;28;20076;-69
2023/06/05 01:12:20;;;;;;;21.98;19.00;;;14.90;99.90;;;;;;5188137;28;20048;-69
2023/06/05 01:14:58;;;;;;;20.77;18.65;;;14.90;99.90;;;;;;5186597;28;20085;-69
2023/06/05 01:17:33;;;;;;;19.23;17.27;;;14.90;99.90;;;;;;5188089;28;20026;-68
2023/06/05 01:20:09;;;;;;;20.15;18.30;;;14.80;99.90;;;;;;5188216;28;20026;-68
2023/06/05 01:22:40;;;;;;;18.85;17.23;;;14.90;99.90;;;;;;5188035;28;20041;-69
2023/06/05 01:25:11;;;;;;;21.08;19.08;;;14.80;99.90;;;;;;5187848;28;20026;-69
2023/06/05 01:27:54;;;;;;;20.08;18.10;;;14.80;99.90;;;;;;5187787;28;20478;-69
2023/06/05 01:30:30;;;;;;;20.33;18.38;;;14.80;99.90;;;;;;5186616;28;20462;-69
2023/06/05 01:33:12;;;;;;;20.88;18.67;;;14.80;99.90;;;;;;5187698;28;20045;-69
2023/06/05 01:35:45;;;;;;;21.30;19.52;;;14.60;99.90;;;;;;5187794;28;20696;-68
2023/06/05 01:38:16;;;;;;;20.90;19.30;;;14.70;99.90;;;;;;5187646;28;20037;-69
2023/06/05 01:40:49;;;;;;;18.45;17.02;;;14.80;99.90;;;;;;5187539;28;20426;-69
2023/06/05 01:43:20;;;;;;;19.65;17.60;;;14.70;99.90;;;;;;5186368;28;20030;-69
2023/06/05 01:45:52;;;;;;;19.75;17.75;;;14.80;99.90;;;;;;5187441;28;20385;-69
2023/06/05 01:48:27;;;;;;;21.67;19.55;;;14.90;99.90;;;;;;5187505;28;20052;-70
2023/06/05 01:50:59;;;;;;;25.30;20.13;;;14.80;99.90;;;;;;5187453;28;20393;-69
2023/06/05 01:53:30;;;;;;;21.50;19.48;;;14.70;99.90;;;;;;5187628;28;20497;-69
2023/06/05 01:56:02;;;;;;;22.48;20.45;;;14.80;99.90;;;;;;5187435;28;20025;-68
2023/06/05 01:58:33;;;;;;;21.73;19.80;;;14.70;99.90;;;;;;5187630;28;20614;-69
2023/06/05 02:01:05;;;;;;;24.27;21.92;;;14.80;99.90;;;;;;5186981;28;20105;-69
2023/06/05 02:03:36;;;;;;;22.67;20.65;;;15.00;99.90;;;;;;5187280;28;20040;-69
2023/06/05 02:06:07;;;;;;;22.38;20.42;;;14.90;99.90;;;;;;5187268;28;20061;-69
2023/06/05 02:08:38;;;;;;;23.60;21.20;;;15.00;99.90;;;;;;5187197;28;20100;-69
2023/06/05 02:11:10;;;;;;;26.13;21.75;;;14.80;99.90;;;;;;5186944;28;20168;-69
2023/06/05 02:13:41;;;;;;;25.98;23.48;;;14.80;99.90;;;;;;5186932;28;20384;-69
2023/06/05 02:16:13;;;;;;;28.15;25.50;;;14.90;99.90;;;;;;5185817;28;20054;-69
2023/06/05 02:18:48;;;;;;;23.23;21.15;;;14.70;99.90;;;;;;5186112;28;20030;-69
2023/06/05 02:21:19;;;;;;;24.73;22.15;;;14.80;99.90;;;;;;5185980;28;20391;-69
2023/06/05 02:23:51;;;;;;;23.85;21.83;;;14.80;99.90;;;;;;5185939;28;20105;-69
2023/06/05 02:26:22;;;;;;;24.60;22.27;;;14.70;99.90;;;;;;5185914;28;20025;-69
2023/06/05 02:28:56;;;;;;;23.20;21.13;;;14.80;99.90;;;;;;5185735;28;20033;-69
2023/06/05 02:31:28;;;;;;;23.50;21.10;;;14.80;99.90;;;;;;5185679;28;20036;-69
2023/06/05 02:33:59;;;;;;;25.35;23.10;;;14.90;99.90;;;;;;5185714;28;20022;-69
2023/06/05 02:36:32;;;;;;;23.85;21.58;;;14.70;99.90;;;;;;5185645;28;20021;-69
2023/06/05 02:39:06;;;;;;;24.88;22.55;;;14.70;99.90;;;;;;5185564;28;20387;-68
2023/06/05 02:41:38;;;;;;;24.00;21.90;;;14.70;99.90;;;;;;5184193;28;20164;-69
2023/06/05 02:44:09;;;;;;;25.55;23.20;;;14.60;99.90;;;;;;5185505;28;20026;-69
2023/06/05 02:46:40;;;;;;;24.60;22.77;;;14.60;99.90;;;;;;5185503;28;20387;-69
2023/06/05 02:49:11;;;;;;;23.92;21.92;;;14.70;99.90;;;;;;5185455;28;20474;-69
2023/06/05 02:51:42;;;;;;;26.50;24.25;;;14.80;99.90;;;;;;5185344;28;20113;-69
2023/06/05 02:54:13;;;;;;;23.42;21.15;;;14.80;99.90;;;;;;5185646;28;20466;-68
2023/06/05 02:56:44;;;;;;;22.08;20.23;;;14.90;99.90;;;;;;5184717;28;20021;-69
2023/06/05 02:59:15;;;;;;;21.17;19.30;;;15.00;99.90;;;;;;5185412;28;20112;-69
2023/06/05 03:01:47;;;;;;;20.98;18.98;;;14.90;99.90;;;;;;5185480;28;20470;-69
2023/06/05 03:04:21;;;;;;;20.95;18.92;;;14.90;99.90;;;;;;5185404;28;20029;-69
2023/06/05 03:06:53;;;;;;;22.25;20.42;;;14.90;99.90;;;;;;5185115;28;20041;-69
2023/06/05 03:09:24;;;;;;;20.80;19.05;;;15.00;99.90;;;;;;5185359;28;20037;-69
2023/06/05 03:11:55;;;;;;;22.25;20.30;;;15.00;99.90;;;;;;5185070;28;20096;-69
2023/06/05 03:14:27;;;;;;;21.67;19.88;;;15.00;99.90;;;;;;5138239;28;1353619;-69
2023/06/05 03:16:59;;;;;;;22.52;20.63;;;15.00;99.90;;;;;;5185929;28;20034;-68
2023/06/05 03:19:30;;;;;;;22.27;20.38;;;15.00;99.90;;;;;;5185947;28;20051;-69
2023/06/05 03:22:01;;;;;;;21.27;19.40;;;15.20;99.90;;;;;;5185979;28;20100;-69
2023/06/05 03:24:32;;;;;;;19.83;18.23;;;15.10;99.90;;;;;;5185709;28;20028;-69
2023/06/05 03:27:04;;;;;;;21.40;19.38;;;15.20;99.90;;;;;;5185657;28;20029;-70
2023/06/05 03:29:35;;;;;;;20.23;18.45;;;15.30;99.90;;;;;;5185773;28;20018;-69
2023/06/05 03:32:06;;;;;;;21.33;19.52;;;15.20;99.90;;;;;;5185574;28;20044;-69
2023/06/05 03:34:37;;;;;;;20.75;19.00;;;15.30;99.90;;;;;;5185586;28;20029;-69
2023/06/05 03:37:08;;;;;;;21.63;19.67;;;15.30;99.90;;;;;;5185574;28;20473;-69
2023/06/05 03:39:38;;;;;;;20.05;17.95;;;15.40;99.90;;;;;;5185565;28;20100;-68
2023/06/05 03:42:11;;;;;;;18.42;16.67;;;15.40;99.90;;;;;;5184180;28;20184;-69
2023/06/05 03:44:41;;;;;;;18.55;16.63;;;15.50;99.90;;;;;;5185370;28;20022;-69
2023/06/05 03:47:14;;;;;;;17.73;16.13;;;15.60;99.90;;;;;;5185452;28;20777;-68
2023/06/05 03:49:47;;;;;;;17.30;15.65;;;15.70;99.90;;;;;;5185320;28;20118;-69
2023/06/05 03:52:23;;;;;;;17.77;16.15;;;15.70;99.90;;;;;;5184078;28;20092;-69
2023/06/05 03:54:55;;;;;;;19.25;17.33;;;15.70;99.90;;;;;;5185368;28;20022;-69
2023/06/05 03:57:26;;;;;;;21.23;19.08;;;15.80;99.90;;;;;;5185364;28;20105;-69
2023/06/05 03:59:57;;;;;;;20.92;18.95;;;15.90;99.90;;;;;;5185294;28;20105;-69
2023/06/05 04:02:27;;;;;;;19.40;17.70;;;15.70;99.90;;;;;;5185311;28;20062;-69
2023/06/05 04:04:58;;;;;;;23.00;20.95;;;15.90;99.90;;;;;;5185167;28;20045;-69
2023/06/05 04:07:30;;;;;;;23.38;20.00;;;15.90;99.90;;;;;;5183955;28;20034;-70
2023/06/05 04:10:00;;;;;;;22.48;19.48;;;16.10;99.90;;;;;;5187596;28;20025;-69
2023/06/05 04:12:31;;;;;;;19.35;17.58;;;16.10;99.90;;;;;;5189194;28;20042;-69
2023/06/05 04:15:02;;;;;;;21.50;19.27;;;16.30;99.90;;;;;;5189021;28;20482;-69
2023/06/05 04:17:33;;;;;;;24.00;19.15;;;16.30;99.90;;;;;;5189432;28;20494;-69
2023/06/05 04:20:08;;;;;;;23.70;21.15;;;16.40;99.90;;;;;;5189568;28;20056;-69
2023/06/05 04:22:40;;;;;;;21.63;19.52;;;16.40;99.90;;;;;;5189352;28;20022;-69
2023/06/05 04:25:12;;;;;;;29.65;21.88;;;16.60;99.90;;;;;;5189102;28;20378;-69
2023/06/05 04:27:45;;;;;;;26.60;21.95;;;16.60;99.90;;;;;;5189058;28;20073;-68
2023/06/05 04:30:16;;;;;;;27.77;19.48;;;16.80;99.90;;;;;;5188996;28;20474;-69
2023/06/05 04:32:54;;;;;;;20.40;17.48;;;16.80;99.90;;;;;;5187590;28;20045;-69
2023/06/05 04:35:25;;;;;;;17.23;15.52;;;17.00;99.90;;;;;;5188853;28;20022;-69
2023/06/05 04:37:56;;;;;;;17.60;16.00;;;17.10;99.90;;;;;;5187588;28;20478;-70
2023/06/05 04:40:27;;;;;;;18.42;16.67;;;17.20;99.90;;;;;;5188841;28;20045;-69
2023/06/05 04:42:58;;;;;;;19.35;16.48;;;17.20;99.90;;;;;;5188620;28;20026;-69
2023/06/05 04:45:29;;;;;;;18.58;16.98;;;17.40;99.90;;;;;;5188577;28;20029;-69
2023/06/05 04:48:00;;;;;;;20.50;18.05;;;17.70;99.90;;;;;;5188638;28;20123;-69
2023/06/05 04:50:33;;;;;;;20.63;16.98;;;17.60;99.90;;;;;;5188590;28;20057;-69
2023/06/05 04:53:05;;;;;;;23.02;20.67;;;17.50;99.90;;;;;;5188449;28;20037;-68
2023/06/05 04:55:35;;;;;;;22.73;20.35;;;17.60;99.90;;;;;;5187024;28;20026;-68
2023/06/05 04:58:06;;;;;;;17.45;16.00;;;17.60;99.90;;;;;;5188424;28;20049;-69
2023/06/05 05:00:39;;;;;;;16.75;15.25;;;17.50;99.90;;;;;;5188394;28;20033;-69
2023/06/05 05:03:13;;;;;;;18.50;16.67;;;17.60;99.90;;;;;;5188357;28;20112;-69
2023/06/05 05:05:44;;;;;;;18.23;15.35;;;17.60;99.90;;;;;;5188323;28;20037;-68
2023/06/05 05:08:15;;;;;;;18.90;17.27;;;17.70;99.90;;;;;;5188235;28;20042;-69
2023/06/05 05:10:46;;;;;;;16.95;15.50;;;17.70;99.90;;;;;;5188139;28;20029;-69
2023/06/05 05:13:16;;;;;;;18.85;17.05;;;17.70;99.90;;;;;;5188233;28;20483;-69
2023/06/05 05:15:47;;;;;;;18.48;16.58;;;17.80;99.90;;;;;;5188274;28;20112;-69
2023/06/05 05:18:19;;;;;;;17.67;15.85;;;17.90;99.90;;;;;;5188338;28;20026;-68
2023/06/05 05:20:50;;;;;;;19.63;17.63;;;17.80;99.90;;;;;;5187846;28;20033;-69
2023/06/05 05:23:21;;;;;;;19.77;17.77;;;18.10;99.90;;;;;;5188181;28;20088;-69
2023/06/05 05:25:52;;;;;;;18.20;16.60;;;18.10;99.90;;;;;;5188066;28;20030;-69
2023/06/05 05:28:22;;;;;;;20.95;19.08;;;18.20;99.90;;;;;;5188020;28;20435;-69
2023/06/05 05:30:57;;;;;;;19.25;17.55;;;18.30;99.90;;;;;;5187853;28;20080;-69
2023/06/05 05:33:28;;;;;;;20.05;18.02;;;18.30;99.90;;;;;;5187838;28;20030;-68
2023/06/05 05:35:59;;;;;;;19.52;17.88;;;18.30;99.90;;;;;;5187733;28;20347;-69
2023/06/05 05:38:29;;;;;;;22.20;19.35;;;18.30;99.90;;;;;;5187782;28;20061;-69
2023/06/05 05:41:00;;;;;;;21.40;19.50;;;18.60;99.90;;;;;;5187753;28;20032;-69
2023/06/05 05:43:31;;;;;;;22.35;20.08;;;18.90;99.90;;;;;;5187640;28;20033;-68
2023/06/05 05:46:02;;;;;;;21.88;20.10;;;18.70;99.90;;;;;;5187653;28;20036;-70
2023/06/05 05:48:36;;;;;;;23.13;20.95;;;18.80;99.90;;;;;;5187527;28;20125;-69
2023/06/05 05:51:07;;;;;;;20.58;18.55;;;18.80;99.90;;;;;;5187422;28;20037;-69
2023/06/05 05:53:38;;;;;;;19.98;17.90;;;18.60;99.90;;;;;;5187424;28;20026;-68
2023/06/05 05:56:09;;;;;;;19.92;18.10;;;18.80;99.90;;;;;;5187201;28;20022;-68
2023/06/05 05:58:40;;;;;;;20.50;18.63;;;19.00;99.90;;;;;;5187344;28;20026;-69
2023/06/05 06:01:12;;;;;;;21.27;19.02;;;19.10;99.90;;;;;;5187317;28;20037;-69
2023/06/05 06:03:43;;;;;;;19.73;17.88;;;19.00;99.90;;;;;;5187181;28;20049;-68
2023/06/05 06:06:14;;;;;;;22.90;17.55;;;19.00;99.90;;;;;;5187196;28;20037;-69
2023/06/05 06:08:45;;;;;;;20.52;18.85;;;19.10;99.90;;;;;;5187018;28;20029;-69
2023/06/05 06:11:16;;;;;;;21.70;19.88;;;19.20;99.90;;;;;;5186832;28;20032;-69
2023/06/05 06:13:48;;;;;;;23.15;21.00;;;19.20;99.90;;;;;;5186890;28;20034;-69
2023/06/05 06:16:19;;;;;;;22.85;20.67;;;19.60;99.90;;;;;;5186859;28;20079;-69
2023/06/05 06:18:50;;;;;;;20.95;19.02;;;19.70;99.90;;;;;;5187047;28;20038;-70
2023/06/05 06:21:21;;;;;;;21.30;19.80;;;19.40;99.90;;;;;;5186848;28;20437;-69
2023/06/05 06:23:52;;;;;;;21.27;19.58;;;19.60;99.90;;;;;;5186741;28;20053;-69
2023/06/05 06:26:23;;;;;;;20.67;19.08;;;19.60;99.90;;;;;;5186666;28;20061;-69
2023/06/05 06:28:56;;;;;;;22.33;20.33;;;19.60;99.90;;;;;;5186867;28;20057;-70
2023/06/05 06:31:27;;;;;;;18.45;16.92;;;19.40;99.90;;;;;;5186103;28;20522;-69
2023/06/05 06:33:59;;;;;;;21.55;19.48;;;19.20;99.90;;;;;;5186641;28;20096;-68
2023/06/05 06:36:30;;;;;;;20.63;18.73;;;19.20;99.90;;;;;;5186512;28;20030;-69
2023/06/05 06:39:01;;;;;;;19.90;17.90;;;19.40;99.90;;;;;;5186611;28;20398;-69
2023/06/05 06:41:32;;;;;;;19.38;17.60;;;19.40;99.90;;;;;;5186471;28;20060;-69
2023/06/05 06:44:03;;;;;;;21.67;19.65;;;19.50;99.90;;;;;;5186460;28;20084;-68
2023/06/05 06:46:34;;;;;;;22.45;20.42;;;19.80;99.90;;;;;;5186556;28;20033;-68
2023/06/05 06:49:06;;;;;;;21.58;19.85;;;19.70;99.90;;;;;;5186395;28;20037;-68
2023/06/05 06:51:37;;;;;;;23.55;21.70;;;19.90;99.90;;;;;;5186174;28;20025;-69
2023/06/05 06:54:08;;;;;;;22.88;21.05;;;20.10;99.90;;;;;;5186372;28;20083;-69
2023/06/05 06:56:38;;;;;;;22.70;20.60;;;20.30;99.90;;;;;;5186072;28;20022;-69
2023/06/05 06:59:13;;;;;;;23.10;21.40;;;20.20;99.90;;;;;;5186369;28;20022;-69
2023/06/05 07:01:46;;;;;;;20.88;19.25;;;20.30;99.90;;;;;;5186325;28;20772;-69
2023/06/05 07:04:19;;;;;;;20.30;18.50;;;20.20;99.90;;;;;;5186181;28;20375;-69
2023/06/05 07:06:51;;;;;;;20.05;18.45;;;19.80;99.90;;;;;;5186002;28;20022;-69
2023/06/05 07:09:21;;;;;;;20.27;18.27;;;19.70;99.90;;;;;;5185961;28;20022;-70
2023/06/05 07:11:54;;;;;;;18.80;17.30;;;19.80;99.90;;;;;;5185743;28;20367;-69
2023/06/05 07:14:25;;;;;;;18.48;16.98;;;19.80;99.90;;;;;;5185520;28;20061;-70
2023/06/05 07:16:58;;;;;;;19.13;17.55;;;19.80;99.90;;;;;;5185858;28;20466;-68
2023/06/05 07:19:30;;;;;;;21.55;19.38;;;19.60;99.90;;;;;;5185844;28;20026;-69
2023/06/05 07:22:04;;;;;;;20.83;18.70;;;19.80;99.90;;;;;;5185677;28;20018;-69
2023/06/05 07:24:36;;;;;;;18.25;16.65;;;20.10;99.90;;;;;;5185735;28;20033;-69
2023/06/05 07:27:08;;;;;;;19.27;17.73;;;19.90;99.90;;;;;;5185697;28;20014;-69
2023/06/05 07:29:38;;;;;;;18.92;17.17;;;20.30;99.90;;;;;;5185589;28;20025;-70
2023/06/05 07:32:09;;;;;;;19.40;17.80;;;20.60;99.90;;;;;;5185489;28;20041;-69
2023/06/05 07:34:40;;;;;;;20.67;19.15;;;20.70;99.90;;;;;;5185495;28;20022;-69
2023/06/05 07:37:11;;;;;;;23.70;21.55;;;20.70;99.90;;;;;;5185578;28;20469;-68
2023/06/05 07:39:42;;;;;;;21.70;19.80;;;20.70;99.90;;;;;;5185652;28;20462;-68
2023/06/05 07:42:13;;;;;;;23.83;21.77;;;20.80;99.90;;;;;;5185785;28;20071;-69
2023/06/05 07:44:44;;;;;;;23.27;21.50;;;20.50;99.90;;;;;;5168024;28;20446;-69
2023/06/05 07:47:15;;;;;;;23.23;21.42;;;20.70;99.90;;;;;;5185664;28;20034;-69
2023/06/05 07:50:00;;;;;;;24.42;22.15;;;20.40;99.90;;;;;;5185621;28;20014;-69
2023/06/05 07:52:31;;;;;;;24.80;22.77;;;20.40;99.90;;;;;;5185527;28;20067;-69
2023/06/05 07:55:02;;;;;;;25.48;23.58;;;20.30;99.90;;;;;;5185552;28;20033;-69
2023/06/05 07:57:34;;;;;;;25.63;23.67;;;20.60;99.90;;;;;;5185318;28;20080;-69
2023/06/05 08:00:10;;;;;;;22.20;20.77;;;20.50;99.90;;;;;;5185533;28;20373;-69
2023/06/05 08:02:40;;;;;;;22.58;20.98;;;20.50;99.90;;;;;;5185507;28;20026;-69
2023/06/05 08:05:11;;;;;;;23.40;21.92;;;20.70;99.90;;;;;;5185278;28;20030;-70
2023/06/05 08:07:42;;;;;;;23.52;21.58;;;20.90;99.90;;;;;;5185240;28;20084;-69
2023/06/05 08:10:13;;;;;;;23.40;21.35;;;21.10;99.90;;;;;;5185211;28;20030;-69
2023/06/05 08:12:44;;;;;;;25.88;23.50;;;21.10;99.90;;;;;;5185031;28;20030;-68
2023/06/05 08:15:15;;;;;;;24.02;22.08;;;21.40;99.90;;;;;;5184912;28;20046;-70
2023/06/05 08:17:46;;;;;;;25.10;23.40;;;21.40;99.90;;;;;;5185128;28;20045;-69
2023/06/05 08:20:17;;;;;;;25.65;23.65;;;21.50;99.90;;;;;;5185127;28;20025;-69
2023/06/05 08:22:49;;;;;;;26.20;24.05;;;21.60;99.90;;;;;;5185204;28;20026;-69
2023/06/05 08:25:19;;;;;;;22.10;20.20;;;21.60;99.90;;;;;;5185239;28;20030;-69
2023/06/05 08:27:50;;;;;;;22.60;20.65;;;21.70;99.90;;;;;;5184999;28;20109;-70
2023/06/05 08:30:21;;;;;;;20.55;18.92;;;21.60;99.90;;;;;;5185126;28;20422;-70
2023/06/05 08:32:52;;;;;;;18.45;16.65;;;21.70;99.90;;;;;;5184841;28;20061;-69
2023/06/05 08:35:23;;;;;;;19.27;17.88;;;21.80;99.90;;;;;;5184926;28;20026;-69
2023/06/05 08:37:54;;;;;;;20.40;18.90;;;21.90;99.90;;;;;;5184888;28;20505;-69
2023/06/05 08:40:28;;;;;;;19.30;17.35;;;22.10;99.90;;;;;;5185209;28;20083;-69
2023/06/05 08:43:03;;;;;;;20.35;18.63;;;22.20;99.90;;;;;;5184688;28;20157;-69
2023/06/05 08:45:34;;;;;;;20.20;18.73;;;22.20;99.90;;;;;;5184801;28;20044;-70
2023/06/05 08:48:09;;;;;;;20.35;18.90;;;22.20;99.90;;;;;;5184787;28;20041;-69
2023/06/05 08:50:41;;;;;;;22.60;20.65;;;22.30;99.90;;;;;;5184787;28;20036;-69
2023/06/05 08:53:12;;;;;;;22.20;19.98;;;22.20;99.90;;;;;;5184725;28;20040;-70
2023/06/05 08:55:51;;;;;;;20.58;19.08;;;22.30;99.90;;;;;;5186467;28;20030;-68
2023/06/05 08:58:22;;;;;;;20.77;19.17;;;22.40;99.90;;;;;;5188579;28;20393;-69
2023/06/05 09:00:53;;;;;;;20.70;18.83;;;22.30;99.90;;;;;;5188572;28;20014;-70
2023/06/05 09:03:24;;;;;;;18.15;16.90;;;22.40;99.90;;;;;;5188583;28;20479;-70
2023/06/05 09:05:55;;;;;;;18.35;16.55;;;22.30;99.90;;;;;;5188497;28;20036;-70
2023/06/05 09:08:31;;;;;;;17.23;16.02;;;22.40;99.90;;;;;;5187176;28;20470;-69
2023/06/05 09:11:30;;;;;;;16.95;15.63;;;22.60;99.90;;;;;;5188310;28;20109;-69
2023/06/05 09:14:01;;;;;;;17.17;15.70;;;22.50;99.90;;;;;;5188019;28;20045;-70
2023/06/05 09:16:42;;;;;;;16.50;15.10;;;22.60;99.90;;;;;;5188229;28;20261;-69
2023/06/05 09:19:13;;;;;;;15.90;14.75;;;22.40;99.90;;;;;;5188157;28;20027;-69
2023/06/05 09:21:53;;;;;;;18.08;16.83;;;22.60;99.90;;;;;;5188187;28;20432;-69
2023/06/05 09:24:24;;;;;;;;;;;22.70;99.90;;;;;;5188588;28;20114;-70
2023/06/05 09:27:09;;;;;;;16.60;15.48;;;22.70;99.90;;;;;;5187924;28;19960;-69
2023/06/05 09:29:43;;;;;;;14.85;13.40;;;22.80;99.90;;;;;;5187983;28;20042;-69
2023/06/05 09:32:23;;;;;;;19.10;17.40;;;22.70;99.90;;;;;;5187812;28;20113;-68
2023/06/05 09:34:59;;;;;;;;;;;22.60;99.90;;;;;;5188210;28;20033;-70
2023/06/05 09:37:35;;;;;;;19.75;17.83;;;22.80;99.90;;;;;;5187845;28;19920;-69
2023/06/05 09:40:08;;;;;;;19.17;17.48;;;22.70;99.90;;;;;;5187713;28;20053;-69
2023/06/05 09:42:39;;;;;;;15.73;14.52;;;23.00;99.90;;;;;;5187512;28;20028;-69
2023/06/05 09:45:10;;;;;;;16.77;15.40;;;22.90;99.90;;;;;;5187513;28;20022;-70
2023/06/05 09:47:41;;;;;;;17.63;16.02;;;22.80;99.90;;;;;;5187672;28;20022;-68
2023/06/05 09:50:25;;;;;;;19.10;17.70;;;22.90;99.90;;;;;;5187580;28;20052;-70
2023/06/05 09:52:56;;;;;;;17.08;15.57;;;22.80;99.90;;;;;;5187305;28;20034;-70
2023/06/05 09:55:28;;;;;;;17.05;15.55;;;23.00;99.90;;;;;;5187178;28;20030;-70
2023/06/05 09:58:03;;;;;;;15.48;13.90;;;23.20;99.90;;;;;;5187171;28;20060;-69
2023/06/05 10:00:34;;;;;;;19.17;17.45;;;23.20;99.90;;;;;;5186087;28;20038;-70
2023/06/05 10:03:17;;;;;;;17.27;16.13;;;22.90;99.90;;;;;;5187302;28;20030;-68
2023/06/05 10:05:48;;;;;;;16.27;15.00;;;23.20;99.90;;;;;;5185838;28;20026;-68
2023/06/05 10:08:19;;;;;;;17.40;16.08;;;23.00;99.90;;;;;;5186513;28;20025;-70
2023/06/05 10:10:51;;;;;;;17.63;15.85;;;23.40;99.90;;;;;;5187317;28;20033;-70
2023/06/05 10:13:22;;;;;;;15.77;14.40;;;23.10;99.90;;;;;;5187203;28;20038;-70
2023/06/05 10:15:55;;;;;;;16.45;14.82;;;23.10;99.90;;;;;;5187100;28;20474;-70
2023/06/05 10:18:26;;;;;;;14.98;13.68;;;23.20;99.90;;;;;;5187200;28;20026;-69
2023/06/05 10:20:58;;;;;;;16.00;14.77;;;23.30;99.90;;;;;;5187050;28;20109;-70
2023/06/05 10:23:29;;;;;;;16.23;15.00;;;23.30;99.90;;;;;;5186986;28;20101;-70
2023/06/05 10:26:06;;;;;;;14.15;12.68;;;23.50;99.90;;;;;;5186974;28;20124;-70
2023/06/05 10:28:41;;;;;;;11.90;11.00;;;23.30;99.90;;;;;;5186882;28;20022;-70
2023/06/05 10:31:25;;;;;;;14.05;12.73;;;23.10;99.90;;;;;;5186673;28;20084;-70
2023/06/05 10:34:23;;;;;;;14.85;13.43;;;23.20;99.90;;;;;;5188367;28;20433;-69
2023/06/05 10:37:21;;;;;;;15.32;13.38;;;23.30;99.90;;;;;;5186171;28;20089;-70
2023/06/05 10:39:54;;;;;;;13.93;12.75;;;23.30;99.90;;;;;;5186326;28;20030;-69
2023/06/05 10:42:26;;;;;;;13.00;11.65;;;23.20;99.90;;;;;;5186470;28;20018;-70
2023/06/05 10:44:57;;;;;;;13.30;11.25;;;23.30;99.90;;;;;;5186525;28;20492;-69
2023/06/05 10:47:37;;;;;;;12.20;10.88;;;23.40;99.90;;;;;;5186387;28;20022;-68
2023/06/05 10:50:19;;;;;;;10.65;8.85;;;23.60;99.90;;;;;;5186318;28;20034;-70
2023/06/05 10:52:52;;;;;;;13.13;11.77;;;23.60;99.90;;;;;;5186296;28;20038;-70
2023/06/05 10:55:25;;;;;;;11.60;10.73;;;23.40;99.90;;;;;;5186137;28;20026;-69
2023/06/05 10:58:10;;;;;;;10.88;9.88;;;23.20;99.90;;;;;;5186212;28;20018;-69
2023/06/05 11:01:15;;;;;;;11.40;9.95;;;23.40;99.90;;;;;;5186181;28;20026;-69
2023/06/05 11:03:56;;;;;;;13.85;12.65;;;23.60;99.90;;;;;;5186130;28;20050;-69
2023/06/05 11:06:28;;;;;;;15.55;12.15;;;23.20;99.90;;;;;;5186016;28;20026;-70
2023/06/05 11:09:09;;;;;;;12.63;11.57;;;23.50;99.90;;;;;;5186051;28;20438;-70
2023/06/05 11:11:57;;;;;;;13.15;11.90;;;23.60;99.90;;;;;;5185707;28;20108;-69
2023/06/05 11:14:44;;;;;;;14.48;13.27;;;23.70;99.90;;;;;;5184215;28;20045;-70
2023/06/05 11:17:42;;;;;;;13.00;11.68;;;23.50;99.90;;;;;;5185794;28;20049;-70
2023/06/05 11:20:26;;;;;;;13.10;11.90;;;23.80;99.90;;;;;;5182881;28;20386;-69
2023/06/05 11:22:57;;;;;;;12.18;11.07;;;23.90;99.90;;;;;;5185723;28;20030;-69
2023/06/05 11:25:30;;;;;;;14.45;13.10;;;24.00;99.90;;;;;;5185738;28;20032;-70
2023/06/05 11:28:05;;;;;;;13.32;11.93;;;23.80;99.90;;;;;;5185912;28;20022;-70
2023/06/05 11:30:43;;;;;;;14.77;13.27;;;23.80;99.90;;;;;;5186156;28;20025;-70
2023/06/05 11:33:20;;;;;;;15.23;13.93;;;23.80;99.90;;;;;;5185747;28;20041;-68
2023/06/05 11:35:52;;;;;;;17.48;14.10;;;23.70;99.90;;;;;;5185742;28;20080;-70
2023/06/05 11:38:23;;;;;;;15.05;13.80;;;23.80;99.90;;;;;;5185647;28;20056;-70
2023/06/05 11:40:57;;;;;;;17.38;15.95;;;23.50;99.90;;;;;;5185585;28;20022;-70
2023/06/05 11:43:29;;;;;;;14.93;13.70;;;23.60;99.90;;;;;;5185492;28;20060;-70
2023/06/05 11:46:00;;;;;;;22.98;16.15;;;23.70;99.90;;;;;;5185394;28;20532;-70
2023/06/05 11:48:31;;;;;;;14.40;12.95;;;23.80;99.90;;;;;;5185415;28;20018;-70
2023/06/05 11:51:05;;;;;;;16.85;12.00;;;24.10;99.90;;;;;;5185373;28;20057;-69
2023/06/05 11:53:42;;;;;;;13.35;11.98;;;23.80;99.90;;;;;;5185468;28;20037;-69
2023/06/05 11:56:16;;;;;;;13.75;12.45;;;24.10;99.90;;;;;;5185316;28;20033;-70
2023/06/05 11:58:48;;;;;;;14.30;13.00;;;23.90;99.90;;;;;;5185231;28;20030;-70
2023/06/05 12:01:25;;;;;;;14.93;13.38;;;23.70;99.90;;;;;;5185328;28;20030;-70
2023/06/05 12:04:07;;;;;;;13.95;12.77;;;23.90;99.90;;;;;;5185482;28;20601;-69
2023/06/05 12:06:43;;;;;;;15.65;14.40;;;23.80;99.90;;;;;;5185174;28;20026;-69
2023/06/05 12:09:15;;;;;;;15.98;14.57;;;23.70;99.90;;;;;;5185327;28;20141;-68
2023/06/05 12:11:46;;;;;;;16.65;15.10;;;23.70;99.90;;;;;;5185132;28;20466;-69
2023/06/05 12:14:31;;;;;;;13.55;12.18;;;23.80;99.90;;;;;;5185028;28;20128;-69
2023/06/05 12:17:12;;;;;;;14.40;12.85;;;23.50;99.90;;;;;;5185099;28;20068;-69
2023/06/05 12:19:43;;;;;;;14.13;12.90;;;23.70;99.90;;;;;;5185067;28;20112;-70
2023/06/05 12:22:14;;;;;;;16.02;13.68;;;23.80;99.90;;;;;;5185058;28;20104;-70
2023/06/05 12:24:44;;;;;;;14.98;13.45;;;23.90;99.90;;;;;;5185068;28;20030;-69
2023/06/05 12:27:15;;;;;;;12.90;11.63;;;23.90;99.90;;;;;;5184935;28;20014;-70
2023/06/05 12:29:56;;;;;;;11.75;10.55;;;24.00;99.90;;;;;;5185330;28;20442;-70
2023/06/05 12:32:27;;;;;;;12.13;11.05;;;24.10;99.90;;;;;;5189029;28;20038;-68
2023/06/05 12:34:58;;;;;;;12.18;11.00;;;24.10;99.90;;;;;;5171229;28;20488;-69
2023/06/05 12:37:38;;;;;;;12.30;11.02;;;24.10;99.90;;;;;;5189135;28;20021;-69
2023/06/05 12:40:11;;;;;;;12.20;10.95;;;24.10;99.90;;;;;;5188892;28;20110;-68
2023/06/05 12:42:43;;;;;;;12.30;10.20;;;23.90;99.90;;;;;;5189014;28;20026;-70
2023/06/05 12:45:15;;;;;;;11.13;10.07;;;23.80;99.90;;;;;;5189048;28;20072;-69
2023/06/05 12:47:45;;;;;;;12.25;10.48;;;24.00;99.90;;;;;;5188955;28;20033;-70
2023/06/05 12:50:16;;;;;;;13.35;11.88;;;23.70;99.90;;;;;;5188871;28;20018;-68
2023/06/05 12:52:47;;;;;;;13.05;11.85;;;23.70;99.90;;;;;;5188779;28;20129;-70
2023/06/05 12:55:18;;;;;;;13.73;12.50;;;23.70;99.90;;;;;;5188665;28;20076;-69
2023/06/05 12:57:49;;;;;;;15.60;12.80;;;23.60;99.90;;;;;;5170902;28;20513;-69